sensor_id;sensor_type;location;lat;lon;timestamp;P1;durP1;ratioP1;P2;durP2;ratioP2
51272;SDS011;37345;59.828;30.328;2022-12-29T00:01:18;4.07;;;0.90;;
51272;SDS011;37345;59.828;30.328;2022-12-29T00:03:47;3.58;;;0.95;;
51272;SDS011;37345;59.828;30.328;2022-12-29T00:06:13;1.85;;;0.70;;
51272;SDS011;37345;59.828;30.328;2022-12-29T00:08:40;2.83;;;0.70;;
51272;SDS011;37345;59.828;30.328;2022-12-29T00:11:16;2.78;;;0.75;;
51272;SDS011;37345;59.828;30.328;2022-12-29T00:13:43;3.50;;;1.10;;
51272;SDS011;37345;59.828;30.328;2022-12-29T00:16:28;2.28;;;0.98;;
51272;SDS011;37345;59.828;30.328;2022-12-29T00:18:54;4.80;;;0.90;;
51272;SDS011;37345;59.828;30.328;2022-12-29T00:21:21;3.10;;;0.77;;
51272;SDS011;37345;59.828;30.328;2022-12-29T00:24:09;6.53;;;1.10;;
51272;SDS011;37345;59.828;30.328;2022-12-29T00:26:55;2.17;;;0.90;;
51272;SDS011;37345;59.828;30.328;2022-12-29T00:29:41;2.28;;;0.77;;
51272;SDS011;37345;59.828;30.328;2022-12-29T00:32:25;3.33;;;0.77;;
51272;SDS011;37345;59.828;30.328;2022-12-29T00:35:11;2.55;;;0.90;;
51272;SDS011;37345;59.828;30.328;2022-12-29T00:37:40;2.40;;;0.88;;
51272;SDS011;37345;59.828;30.328;2022-12-29T00:40:26;5.72;;;1.05;;
51272;SDS011;37345;59.828;30.328;2022-12-29T00:43:11;2.70;;;0.98;;
51272;SDS011;37345;59.828;30.328;2022-12-29T00:45:55;3.30;;;0.77;;
51272;SDS011;37345;59.828;30.328;2022-12-29T00:48:22;2.05;;;0.90;;
51272;SDS011;37345;59.828;30.328;2022-12-29T00:51:06;3.92;;;0.80;;
51272;SDS011;37345;59.828;30.328;2022-12-29T00:53:33;2.75;;;0.85;;
51272;SDS011;37345;59.828;30.328;2022-12-29T00:55:59;1.70;;;0.65;;
51272;SDS011;37345;59.828;30.328;2022-12-29T00:58:29;2.42;;;0.70;;
51272;SDS011;37345;59.828;30.328;2022-12-29T01:01:05;3.42;;;0.90;;
51272;SDS011;37345;59.828;30.328;2022-12-29T01:03:32;4.70;;;1.00;;
51272;SDS011;37345;59.828;30.328;2022-12-29T01:06:05;4.82;;;0.70;;
51272;SDS011;37345;59.828;30.328;2022-12-29T01:08:31;5.03;;;0.75;;
51272;SDS011;37345;59.828;30.328;2022-12-29T01:11:01;2.42;;;1.23;;
51272;SDS011;37345;59.828;30.328;2022-12-29T01:13:28;5.70;;;0.73;;
51272;SDS011;37345;59.828;30.328;2022-12-29T01:15:54;1.90;;;0.77;;
51272;SDS011;37345;59.828;30.328;2022-12-29T01:18:20;3.92;;;0.77;;
51272;SDS011;37345;59.828;30.328;2022-12-29T01:20:46;3.28;;;0.82;;
51272;SDS011;37345;59.828;30.328;2022-12-29T01:23:13;6.05;;;0.77;;
51272;SDS011;37345;59.828;30.328;2022-12-29T01:25:39;4.70;;;0.98;;
51272;SDS011;37345;59.828;30.328;2022-12-29T01:28:05;3.50;;;0.73;;
51272;SDS011;37345;59.828;30.328;2022-12-29T01:30:33;3.70;;;0.50;;
51272;SDS011;37345;59.828;30.328;2022-12-29T01:33:00;3.28;;;1.00;;
51272;SDS011;37345;59.828;30.328;2022-12-29T01:35:26;1.55;;;0.55;;
51272;SDS011;37345;59.828;30.328;2022-12-29T01:37:52;1.58;;;0.50;;
51272;SDS011;37345;59.828;30.328;2022-12-29T01:40:19;2.45;;;0.60;;
51272;SDS011;37345;59.828;30.328;2022-12-29T01:42:45;3.15;;;1.00;;
51272;SDS011;37345;59.828;30.328;2022-12-29T01:45:12;1.63;;;0.70;;
51272;SDS011;37345;59.828;30.328;2022-12-29T01:47:55;1.23;;;0.52;;
51272;SDS011;37345;59.828;30.328;2022-12-29T01:50:30;1.95;;;0.80;;
51272;SDS011;37345;59.828;30.328;2022-12-29T01:52:59;2.35;;;0.70;;
51272;SDS011;37345;59.828;30.328;2022-12-29T01:55:27;2.75;;;0.90;;
51272;SDS011;37345;59.828;30.328;2022-12-29T01:57:55;3.40;;;0.70;;
51272;SDS011;37345;59.828;30.328;2022-12-29T02:00:24;4.15;;;0.70;;
51272;SDS011;37345;59.828;30.328;2022-12-29T02:02:53;4.82;;;0.85;;
51272;SDS011;37345;59.828;30.328;2022-12-29T02:07:46;4.63;;;0.80;;
51272;SDS011;37345;59.828;30.328;2022-12-29T02:10:12;3.10;;;0.50;;
51272;SDS011;37345;59.828;30.328;2022-12-29T02:12:39;3.47;;;0.82;;
51272;SDS011;37345;59.828;30.328;2022-12-29T02:15:06;3.47;;;0.57;;
51272;SDS011;37345;59.828;30.328;2022-12-29T02:31:34;2.80;;;0.65;;
51272;SDS011;37345;59.828;30.328;2022-12-29T02:33:51;2.75;;;0.73;;
51272;SDS011;37345;59.828;30.328;2022-12-29T02:36:34;3.15;;;0.77;;
51272;SDS011;37345;59.828;30.328;2022-12-29T02:41:32;4.05;;;1.00;;
51272;SDS011;37345;59.828;30.328;2022-12-29T02:44:09;1.65;;;0.65;;
51272;SDS011;37345;59.828;30.328;2022-12-29T02:46:46;5.07;;;0.93;;
51272;SDS011;37345;59.828;30.328;2022-12-29T02:49:20;5.70;;;1.20;;
51272;SDS011;37345;59.828;30.328;2022-12-29T02:52:07;5.07;;;0.60;;
51272;SDS011;37345;59.828;30.328;2022-12-29T02:54:35;3.63;;;0.80;;
51272;SDS011;37345;59.828;30.328;2022-12-29T02:57:10;2.17;;;0.77;;
51272;SDS011;37345;59.828;30.328;2022-12-29T02:59:36;2.97;;;0.80;;
51272;SDS011;37345;59.828;30.328;2022-12-29T03:04:50;1.13;;;0.60;;
51272;SDS011;37345;59.828;30.328;2022-12-29T03:07:24;5.70;;;0.80;;
51272;SDS011;37345;59.828;30.328;2022-12-29T03:12:35;3.38;;;0.95;;
51272;SDS011;37345;59.828;30.328;2022-12-29T03:15:32;2.83;;;0.63;;
51272;SDS011;37345;59.828;30.328;2022-12-29T03:18:22;3.65;;;0.55;;
51272;SDS011;37345;59.828;30.328;2022-12-29T03:20:58;3.33;;;1.00;;
51272;SDS011;37345;59.828;30.328;2022-12-29T03:23:26;3.67;;;0.90;;
51272;SDS011;37345;59.828;30.328;2022-12-29T03:25:54;3.20;;;0.75;;
51272;SDS011;37345;59.828;30.328;2022-12-29T03:28:29;3.45;;;0.70;;
51272;SDS011;37345;59.828;30.328;2022-12-29T03:30:55;5.97;;;2.15;;
51272;SDS011;37345;59.828;30.328;2022-12-29T03:33:24;1.98;;;0.80;;
51272;SDS011;37345;59.828;30.328;2022-12-29T03:35:51;3.77;;;0.80;;
51272;SDS011;37345;59.828;30.328;2022-12-29T03:38:28;4.82;;;1.00;;
51272;SDS011;37345;59.828;30.328;2022-12-29T03:40:56;4.60;;;0.75;;
51272;SDS011;37345;59.828;30.328;2022-12-29T03:43:23;3.63;;;0.73;;
51272;SDS011;37345;59.828;30.328;2022-12-29T03:45:50;2.95;;;0.98;;
51272;SDS011;37345;59.828;30.328;2022-12-29T03:48:16;3.22;;;0.90;;
51272;SDS011;37345;59.828;30.328;2022-12-29T03:50:42;4.22;;;0.90;;
51272;SDS011;37345;59.828;30.328;2022-12-29T03:53:08;5.43;;;0.90;;
51272;SDS011;37345;59.828;30.328;2022-12-29T03:55:34;2.20;;;1.00;;
51272;SDS011;37345;59.828;30.328;2022-12-29T03:58:00;4.70;;;1.08;;
51272;SDS011;37345;59.828;30.328;2022-12-29T04:00:26;5.25;;;1.10;;
51272;SDS011;37345;59.828;30.328;2022-12-29T04:02:53;4.85;;;1.50;;
51272;SDS011;37345;59.828;30.328;2022-12-29T04:05:20;5.40;;;1.58;;
51272;SDS011;37345;59.828;30.328;2022-12-29T04:07:46;3.70;;;0.95;;
51272;SDS011;37345;59.828;30.328;2022-12-29T04:10:12;6.47;;;1.13;;
51272;SDS011;37345;59.828;30.328;2022-12-29T04:12:38;4.68;;;1.42;;
51272;SDS011;37345;59.828;30.328;2022-12-29T04:15:06;2.38;;;1.15;;
51272;SDS011;37345;59.828;30.328;2022-12-29T04:17:33;5.63;;;1.10;;
51272;SDS011;37345;59.828;30.328;2022-12-29T04:19:59;4.25;;;1.10;;
51272;SDS011;37345;59.828;30.328;2022-12-29T04:22:44;4.47;;;0.95;;
51272;SDS011;37345;59.828;30.328;2022-12-29T04:25:10;3.88;;;1.15;;
51272;SDS011;37345;59.828;30.328;2022-12-29T04:27:36;3.88;;;1.25;;
51272;SDS011;37345;59.828;30.328;2022-12-29T04:30:02;3.60;;;1.13;;
51272;SDS011;37345;59.828;30.328;2022-12-29T04:32:28;3.05;;;1.20;;
51272;SDS011;37345;59.828;30.328;2022-12-29T04:34:54;3.38;;;1.10;;
51272;SDS011;37345;59.828;30.328;2022-12-29T04:37:20;2.05;;;0.90;;
51272;SDS011;37345;59.828;30.328;2022-12-29T04:39:46;3.88;;;1.30;;
51272;SDS011;37345;59.828;30.328;2022-12-29T04:42:13;4.70;;;0.90;;
51272;SDS011;37345;59.828;30.328;2022-12-29T04:44:39;5.60;;;1.20;;
51272;SDS011;37345;59.828;30.328;2022-12-29T04:47:05;5.55;;;1.20;;
51272;SDS011;37345;59.828;30.328;2022-12-29T04:49:31;4.65;;;1.02;;
51272;SDS011;37345;59.828;30.328;2022-12-29T04:51:57;4.82;;;1.13;;
51272;SDS011;37345;59.828;30.328;2022-12-29T04:54:23;4.77;;;1.13;;
51272;SDS011;37345;59.828;30.328;2022-12-29T04:56:49;7.43;;;1.30;;
51272;SDS011;37345;59.828;30.328;2022-12-29T04:59:15;5.78;;;1.27;;
51272;SDS011;37345;59.828;30.328;2022-12-29T05:01:41;4.68;;;1.77;;
51272;SDS011;37345;59.828;30.328;2022-12-29T05:04:08;4.65;;;1.20;;
51272;SDS011;37345;59.828;30.328;2022-12-29T05:06:34;5.90;;;1.30;;
51272;SDS011;37345;59.828;30.328;2022-12-29T05:09:00;3.33;;;1.27;;
51272;SDS011;37345;59.828;30.328;2022-12-29T05:11:26;3.97;;;1.15;;
51272;SDS011;37345;59.828;30.328;2022-12-29T05:13:52;8.30;;;1.27;;
51272;SDS011;37345;59.828;30.328;2022-12-29T05:16:18;6.10;;;1.40;;
51272;SDS011;37345;59.828;30.328;2022-12-29T05:18:44;3.47;;;1.30;;
51272;SDS011;37345;59.828;30.328;2022-12-29T05:21:10;6.63;;;1.98;;
51272;SDS011;37345;59.828;30.328;2022-12-29T05:23:36;7.60;;;2.15;;
51272;SDS011;37345;59.828;30.328;2022-12-29T05:26:02;6.80;;;1.87;;
51272;SDS011;37345;59.828;30.328;2022-12-29T05:28:29;3.70;;;1.67;;
51272;SDS011;37345;59.828;30.328;2022-12-29T05:30:55;4.70;;;1.70;;
51272;SDS011;37345;59.828;30.328;2022-12-29T05:33:21;4.53;;;1.40;;
51272;SDS011;37345;59.828;30.328;2022-12-29T05:35:47;5.57;;;1.70;;
51272;SDS011;37345;59.828;30.328;2022-12-29T05:38:13;4.72;;;1.80;;
51272;SDS011;37345;59.828;30.328;2022-12-29T05:40:42;4.10;;;1.40;;
51272;SDS011;37345;59.828;30.328;2022-12-29T05:43:11;4.80;;;1.92;;
51272;SDS011;37345;59.828;30.328;2022-12-29T05:45:40;4.53;;;1.63;;
51272;SDS011;37345;59.828;30.328;2022-12-29T05:48:06;7.10;;;1.70;;
51272;SDS011;37345;59.828;30.328;2022-12-29T05:50:32;7.90;;;2.10;;
51272;SDS011;37345;59.828;30.328;2022-12-29T05:52:59;11.00;;;2.10;;
51272;SDS011;37345;59.828;30.328;2022-12-29T05:55:25;10.40;;;1.90;;
51272;SDS011;37345;59.828;30.328;2022-12-29T05:57:51;5.68;;;1.80;;
51272;SDS011;37345;59.828;30.328;2022-12-29T06:00:17;6.35;;;2.03;;
51272;SDS011;37345;59.828;30.328;2022-12-29T06:02:43;4.72;;;1.83;;
51272;SDS011;37345;59.828;30.328;2022-12-29T06:05:09;4.68;;;2.13;;
51272;SDS011;37345;59.828;30.328;2022-12-29T06:07:36;4.72;;;1.77;;
51272;SDS011;37345;59.828;30.328;2022-12-29T06:10:02;6.50;;;1.60;;
51272;SDS011;37345;59.828;30.328;2022-12-29T06:12:28;3.65;;;1.67;;
51272;SDS011;37345;59.828;30.328;2022-12-29T06:14:54;5.82;;;2.00;;
51272;SDS011;37345;59.828;30.328;2022-12-29T06:17:21;6.60;;;2.17;;
51272;SDS011;37345;59.828;30.328;2022-12-29T06:19:47;5.55;;;2.40;;
51272;SDS011;37345;59.828;30.328;2022-12-29T06:22:13;6.20;;;1.95;;
51272;SDS011;37345;59.828;30.328;2022-12-29T06:24:39;6.68;;;2.45;;
51272;SDS011;37345;59.828;30.328;2022-12-29T06:27:05;5.88;;;2.00;;
51272;SDS011;37345;59.828;30.328;2022-12-29T06:29:31;4.95;;;1.90;;
51272;SDS011;37345;59.828;30.328;2022-12-29T06:31:58;8.13;;;1.98;;
51272;SDS011;37345;59.828;30.328;2022-12-29T06:34:24;4.88;;;2.10;;
51272;SDS011;37345;59.828;30.328;2022-12-29T06:36:51;8.38;;;1.80;;
51272;SDS011;37345;59.828;30.328;2022-12-29T06:39:17;7.05;;;2.13;;
51272;SDS011;37345;59.828;30.328;2022-12-29T06:41:43;6.00;;;2.00;;
51272;SDS011;37345;59.828;30.328;2022-12-29T06:44:09;6.77;;;2.43;;
51272;SDS011;37345;59.828;30.328;2022-12-29T06:46:36;6.85;;;2.38;;
51272;SDS011;37345;59.828;30.328;2022-12-29T06:49:02;8.53;;;2.70;;
51272;SDS011;37345;59.828;30.328;2022-12-29T06:51:28;6.13;;;2.50;;
51272;SDS011;37345;59.828;30.328;2022-12-29T06:53:54;7.88;;;2.53;;
51272;SDS011;37345;59.828;30.328;2022-12-29T06:56:20;6.43;;;2.45;;
51272;SDS011;37345;59.828;30.328;2022-12-29T06:58:46;6.23;;;2.87;;
51272;SDS011;37345;59.828;30.328;2022-12-29T07:01:12;7.30;;;2.50;;
51272;SDS011;37345;59.828;30.328;2022-12-29T07:03:40;9.35;;;2.70;;
51272;SDS011;37345;59.828;30.328;2022-12-29T07:06:07;8.50;;;2.73;;
51272;SDS011;37345;59.828;30.328;2022-12-29T07:08:36;11.32;;;2.95;;
51272;SDS011;37345;59.828;30.328;2022-12-29T07:11:03;10.90;;;2.35;;
51272;SDS011;37345;59.828;30.328;2022-12-29T07:13:32;10.48;;;2.58;;
51272;SDS011;37345;59.828;30.328;2022-12-29T07:15:58;5.78;;;2.80;;
51272;SDS011;37345;59.828;30.328;2022-12-29T07:18:24;6.80;;;2.65;;
51272;SDS011;37345;59.828;30.328;2022-12-29T07:20:51;6.45;;;2.83;;
51272;SDS011;37345;59.828;30.328;2022-12-29T07:23:17;5.80;;;2.97;;
51272;SDS011;37345;59.828;30.328;2022-12-29T07:25:43;10.40;;;3.20;;
51272;SDS011;37345;59.828;30.328;2022-12-29T07:28:09;9.10;;;3.55;;
51272;SDS011;37345;59.828;30.328;2022-12-29T07:30:36;10.37;;;3.60;;
51272;SDS011;37345;59.828;30.328;2022-12-29T07:33:03;10.85;;;3.75;;
51272;SDS011;37345;59.828;30.328;2022-12-29T07:35:29;6.70;;;2.60;;
51272;SDS011;37345;59.828;30.328;2022-12-29T07:37:55;8.13;;;3.00;;
51272;SDS011;37345;59.828;30.328;2022-12-29T07:40:21;8.77;;;3.03;;
51272;SDS011;37345;59.828;30.328;2022-12-29T07:42:48;9.93;;;3.13;;
51272;SDS011;37345;59.828;30.328;2022-12-29T07:45:14;6.60;;;2.93;;
51272;SDS011;37345;59.828;30.328;2022-12-29T07:47:40;7.65;;;3.08;;
51272;SDS011;37345;59.828;30.328;2022-12-29T07:50:13;9.43;;;3.22;;
51272;SDS011;37345;59.828;30.328;2022-12-29T07:52:39;7.03;;;3.17;;
51272;SDS011;37345;59.828;30.328;2022-12-29T07:55:06;8.20;;;3.40;;
51272;SDS011;37345;59.828;30.328;2022-12-29T07:57:32;13.00;;;4.32;;
51272;SDS011;37345;59.828;30.328;2022-12-29T07:59:58;15.63;;;4.25;;
51272;SDS011;37345;59.828;30.328;2022-12-29T08:02:24;9.13;;;3.92;;
51272;SDS011;37345;59.828;30.328;2022-12-29T08:04:54;7.90;;;3.67;;
51272;SDS011;37345;59.828;30.328;2022-12-29T08:07:20;7.90;;;3.47;;
51272;SDS011;37345;59.828;30.328;2022-12-29T08:09:49;11.45;;;3.65;;
51272;SDS011;37345;59.828;30.328;2022-12-29T08:12:15;8.25;;;3.67;;
51272;SDS011;37345;59.828;30.328;2022-12-29T08:14:41;6.32;;;3.50;;
51272;SDS011;37345;59.828;30.328;2022-12-29T08:17:08;6.70;;;3.80;;
51272;SDS011;37345;59.828;30.328;2022-12-29T08:19:35;8.05;;;2.92;;
51272;SDS011;37345;59.828;30.328;2022-12-29T08:22:01;9.45;;;3.45;;
51272;SDS011;37345;59.828;30.328;2022-12-29T08:24:27;9.35;;;3.95;;
51272;SDS011;37345;59.828;30.328;2022-12-29T08:26:53;10.98;;;3.70;;
51272;SDS011;37345;59.828;30.328;2022-12-29T08:29:19;11.63;;;5.07;;
51272;SDS011;37345;59.828;30.328;2022-12-29T08:31:46;11.50;;;3.80;;
51272;SDS011;37345;59.828;30.328;2022-12-29T08:34:12;8.67;;;4.00;;
51272;SDS011;37345;59.828;30.328;2022-12-29T08:36:39;9.15;;;4.30;;
51272;SDS011;37345;59.828;30.328;2022-12-29T08:39:05;9.05;;;4.82;;
51272;SDS011;37345;59.828;30.328;2022-12-29T08:41:31;10.68;;;5.05;;
51272;SDS011;37345;59.828;30.328;2022-12-29T08:43:57;12.25;;;5.65;;
51272;SDS011;37345;59.828;30.328;2022-12-29T08:46:23;8.15;;;4.70;;
51272;SDS011;37345;59.828;30.328;2022-12-29T08:48:49;12.05;;;4.97;;
51272;SDS011;37345;59.828;30.328;2022-12-29T08:51:15;9.02;;;4.68;;
51272;SDS011;37345;59.828;30.328;2022-12-29T08:53:42;6.72;;;4.38;;
51272;SDS011;37345;59.828;30.328;2022-12-29T08:56:08;7.88;;;4.03;;
51272;SDS011;37345;59.828;30.328;2022-12-29T08:58:35;8.52;;;3.53;;
51272;SDS011;37345;59.828;30.328;2022-12-29T09:01:01;10.65;;;3.83;;
51272;SDS011;37345;59.828;30.328;2022-12-29T09:03:27;8.43;;;4.28;;
51272;SDS011;37345;59.828;30.328;2022-12-29T09:05:54;10.30;;;4.03;;
51272;SDS011;37345;59.828;30.328;2022-12-29T09:08:21;10.57;;;4.95;;
51272;SDS011;37345;59.828;30.328;2022-12-29T09:10:47;11.50;;;4.90;;
51272;SDS011;37345;59.828;30.328;2022-12-29T09:13:14;9.88;;;5.35;;
51272;SDS011;37345;59.828;30.328;2022-12-29T09:15:40;10.38;;;5.13;;
51272;SDS011;37345;59.828;30.328;2022-12-29T09:18:07;12.50;;;4.93;;
51272;SDS011;37345;59.828;30.328;2022-12-29T09:20:33;8.93;;;5.10;;
51272;SDS011;37345;59.828;30.328;2022-12-29T09:22:59;12.15;;;4.70;;
51272;SDS011;37345;59.828;30.328;2022-12-29T09:25:28;8.95;;;4.88;;
51272;SDS011;37345;59.828;30.328;2022-12-29T09:27:54;6.82;;;4.05;;
51272;SDS011;37345;59.828;30.328;2022-12-29T09:30:21;9.57;;;4.40;;
51272;SDS011;37345;59.828;30.328;2022-12-29T09:32:48;9.30;;;4.97;;
51272;SDS011;37345;59.828;30.328;2022-12-29T09:35:15;8.32;;;4.25;;
51272;SDS011;37345;59.828;30.328;2022-12-29T09:37:41;8.30;;;4.50;;
51272;SDS011;37345;59.828;30.328;2022-12-29T09:40:15;10.85;;;5.35;;
51272;SDS011;37345;59.828;30.328;2022-12-29T09:45:20;12.50;;;5.80;;
51272;SDS011;37345;59.828;30.328;2022-12-29T09:47:49;12.48;;;5.70;;
51272;SDS011;37345;59.828;30.328;2022-12-29T09:50:34;15.23;;;6.32;;
51272;SDS011;37345;59.828;30.328;2022-12-29T09:55:40;13.95;;;6.88;;
51272;SDS011;37345;59.828;30.328;2022-12-29T09:58:51;13.30;;;7.03;;
51272;SDS011;37345;59.828;30.328;2022-12-29T10:01:01;12.70;;;7.00;;
51272;SDS011;37345;59.828;30.328;2022-12-29T10:03:36;15.15;;;7.47;;
51272;SDS011;37345;59.828;30.328;2022-12-29T10:14:04;17.50;;;8.13;;
51272;SDS011;37345;59.828;30.328;2022-12-29T10:19:26;15.55;;;7.38;;
51272;SDS011;37345;59.828;30.328;2022-12-29T10:22:17;18.50;;;8.63;;
51272;SDS011;37345;59.828;30.328;2022-12-29T10:24:46;16.13;;;7.93;;
51272;SDS011;37345;59.828;30.328;2022-12-29T10:27:13;19.43;;;8.53;;
51272;SDS011;37345;59.828;30.328;2022-12-29T10:29:42;20.30;;;8.80;;
51272;SDS011;37345;59.828;30.328;2022-12-29T10:32:17;19.85;;;8.77;;
51272;SDS011;37345;59.828;30.328;2022-12-29T10:34:47;21.80;;;9.30;;
51272;SDS011;37345;59.828;30.328;2022-12-29T10:37:18;21.20;;;9.00;;
51272;SDS011;37345;59.828;30.328;2022-12-29T10:39:53;20.33;;;8.95;;
51272;SDS011;37345;59.828;30.328;2022-12-29T10:42:27;21.08;;;9.02;;
51272;SDS011;37345;59.828;30.328;2022-12-29T10:44:56;17.52;;;8.30;;
51272;SDS011;37345;59.828;30.328;2022-12-29T10:47:25;25.02;;;9.95;;
51272;SDS011;37345;59.828;30.328;2022-12-29T10:49:52;19.98;;;9.85;;
51272;SDS011;37345;59.828;30.328;2022-12-29T10:52:19;22.60;;;9.68;;
51272;SDS011;37345;59.828;30.328;2022-12-29T10:59:50;24.13;;;10.40;;
51272;SDS011;37345;59.828;30.328;2022-12-29T11:07:18;24.48;;;10.00;;
51272;SDS011;37345;59.828;30.328;2022-12-29T11:09:45;21.75;;;9.93;;
51272;SDS011;37345;59.828;30.328;2022-12-29T11:12:32;20.70;;;9.88;;
51272;SDS011;37345;59.828;30.328;2022-12-29T11:15:11;27.83;;;11.30;;
51272;SDS011;37345;59.828;30.328;2022-12-29T11:20:19;31.73;;;12.93;;
51272;SDS011;37345;59.828;30.328;2022-12-29T11:22:52;31.88;;;12.27;;
51272;SDS011;37345;59.828;30.328;2022-12-29T11:25:18;31.30;;;12.53;;
51272;SDS011;37345;59.828;30.328;2022-12-29T11:27:54;28.20;;;12.10;;
51272;SDS011;37345;59.828;30.328;2022-12-29T11:30:24;34.90;;;13.30;;
51272;SDS011;37345;59.828;30.328;2022-12-29T11:32:52;31.48;;;12.43;;
51272;SDS011;37345;59.828;30.328;2022-12-29T11:37:57;35.70;;;12.47;;
51272;SDS011;37345;59.828;30.328;2022-12-29T11:40:24;27.17;;;11.00;;
51272;SDS011;37345;59.828;30.328;2022-12-29T11:42:51;29.55;;;10.40;;
51272;SDS011;37345;59.828;30.328;2022-12-29T11:45:24;32.63;;;10.67;;
51272;SDS011;37345;59.828;30.328;2022-12-29T11:48:14;38.17;;;10.82;;
51272;SDS011;37345;59.828;30.328;2022-12-29T11:50:39;29.05;;;10.13;;
51272;SDS011;37345;59.828;30.328;2022-12-29T11:53:07;27.63;;;10.50;;
51272;SDS011;37345;59.828;30.328;2022-12-29T11:55:39;30.73;;;10.43;;
51272;SDS011;37345;59.828;30.328;2022-12-29T11:58:05;25.70;;;10.48;;
51272;SDS011;37345;59.828;30.328;2022-12-29T12:00:32;27.65;;;9.93;;
51272;SDS011;37345;59.828;30.328;2022-12-29T12:03:01;24.77;;;9.35;;
51272;SDS011;37345;59.828;30.328;2022-12-29T12:08:37;24.63;;;10.00;;
51272;SDS011;37345;59.828;30.328;2022-12-29T12:11:12;25.63;;;9.88;;
51272;SDS011;37345;59.828;30.328;2022-12-29T12:16:28;21.60;;;8.80;;
51272;SDS011;37345;59.828;30.328;2022-12-29T12:19:00;23.13;;;8.63;;
51272;SDS011;37345;59.828;30.328;2022-12-29T12:21:29;22.90;;;10.15;;
51272;SDS011;37345;59.828;30.328;2022-12-29T12:23:59;22.58;;;10.23;;
51272;SDS011;37345;59.828;30.328;2022-12-29T12:26:32;20.08;;;9.00;;
51272;SDS011;37345;59.828;30.328;2022-12-29T12:29:14;25.02;;;9.35;;
51272;SDS011;37345;59.828;30.328;2022-12-29T12:31:59;21.35;;;9.45;;
51272;SDS011;37345;59.828;30.328;2022-12-29T12:37:02;19.85;;;8.38;;
51272;SDS011;37345;59.828;30.328;2022-12-29T12:55:57;21.75;;;8.93;;
51272;SDS011;37345;59.828;30.328;2022-12-29T12:58:30;21.95;;;9.10;;
51272;SDS011;37345;59.828;30.328;2022-12-29T13:11:17;16.65;;;7.40;;
51272;SDS011;37345;59.828;30.328;2022-12-29T13:19:07;16.73;;;7.25;;
51272;SDS011;37345;59.828;30.328;2022-12-29T13:24:10;21.03;;;7.90;;
51272;SDS011;37345;59.828;30.328;2022-12-29T13:26:40;24.85;;;8.45;;
51272;SDS011;37345;59.828;30.328;2022-12-29T13:29:19;21.02;;;7.25;;
51272;SDS011;37345;59.828;30.328;2022-12-29T13:31:52;18.63;;;7.40;;
51272;SDS011;37345;59.828;30.328;2022-12-29T13:34:44;17.13;;;7.60;;
51272;SDS011;37345;59.828;30.328;2022-12-29T13:37:11;14.82;;;6.78;;
51272;SDS011;37345;59.828;30.328;2022-12-29T13:39:43;20.33;;;6.40;;
51272;SDS011;37345;59.828;30.328;2022-12-29T13:42:11;14.60;;;6.38;;
51272;SDS011;37345;59.828;30.328;2022-12-29T13:44:45;14.32;;;6.40;;
51272;SDS011;37345;59.828;30.328;2022-12-29T13:49:44;13.73;;;5.95;;
51272;SDS011;37345;59.828;30.328;2022-12-29T13:54:43;13.70;;;5.82;;
51272;SDS011;37345;59.828;30.328;2022-12-29T13:59:57;15.57;;;6.10;;
51272;SDS011;37345;59.828;30.328;2022-12-29T14:02:26;13.32;;;6.07;;
51272;SDS011;37345;59.828;30.328;2022-12-29T14:04:59;17.55;;;6.30;;
51272;SDS011;37345;59.828;30.328;2022-12-29T14:07:26;13.90;;;5.80;;
51272;SDS011;37345;59.828;30.328;2022-12-29T14:09:53;15.48;;;6.75;;
51272;SDS011;37345;59.828;30.328;2022-12-29T14:15:41;13.93;;;6.15;;
51272;SDS011;37345;59.828;30.328;2022-12-29T14:18:09;13.68;;;6.80;;
51272;SDS011;37345;59.828;30.328;2022-12-29T14:20:36;14.27;;;5.90;;
51272;SDS011;37345;59.828;30.328;2022-12-29T14:28:24;21.42;;;6.55;;
51272;SDS011;37345;59.828;30.328;2022-12-29T14:30:52;14.00;;;5.97;;
51272;SDS011;37345;59.828;30.328;2022-12-29T14:33:19;17.63;;;5.60;;
51272;SDS011;37345;59.828;30.328;2022-12-29T14:35:46;21.52;;;6.20;;
51272;SDS011;37345;59.828;30.328;2022-12-29T14:38:18;16.38;;;5.47;;
51272;SDS011;37345;59.828;30.328;2022-12-29T14:40:45;16.52;;;5.13;;
51272;SDS011;37345;59.828;30.328;2022-12-29T14:43:13;9.00;;;4.43;;
51272;SDS011;37345;59.828;30.328;2022-12-29T14:45:40;10.70;;;4.70;;
51272;SDS011;37345;59.828;30.328;2022-12-29T14:48:21;10.57;;;4.50;;
51272;SDS011;37345;59.828;30.328;2022-12-29T14:50:47;9.70;;;4.25;;
51272;SDS011;37345;59.828;30.328;2022-12-29T14:55:58;8.98;;;4.45;;
51272;SDS011;37345;59.828;30.328;2022-12-29T14:58:28;9.77;;;4.10;;
51272;SDS011;37345;59.828;30.328;2022-12-29T15:00:58;11.98;;;4.60;;
51272;SDS011;37345;59.828;30.328;2022-12-29T15:03:28;15.10;;;4.80;;
51272;SDS011;37345;59.828;30.328;2022-12-29T15:08:21;13.07;;;4.90;;
51272;SDS011;37345;59.828;30.328;2022-12-29T15:10:53;11.13;;;4.05;;
51272;SDS011;37345;59.828;30.328;2022-12-29T15:13:24;10.90;;;4.27;;
51272;SDS011;37345;59.828;30.328;2022-12-29T15:15:50;10.68;;;4.60;;
51272;SDS011;37345;59.828;30.328;2022-12-29T15:18:29;11.30;;;4.22;;
51272;SDS011;37345;59.828;30.328;2022-12-29T15:21:02;9.90;;;4.20;;
51272;SDS011;37345;59.828;30.328;2022-12-29T15:23:30;9.95;;;4.07;;
51272;SDS011;37345;59.828;30.328;2022-12-29T15:26:06;8.73;;;3.60;;
51272;SDS011;37345;59.828;30.328;2022-12-29T15:28:45;10.77;;;4.07;;
51272;SDS011;37345;59.828;30.328;2022-12-29T15:31:14;18.73;;;4.28;;
51272;SDS011;37345;59.828;30.328;2022-12-29T15:33:41;9.60;;;4.45;;
51272;SDS011;37345;59.828;30.328;2022-12-29T15:36:11;12.07;;;4.70;;
51272;SDS011;37345;59.828;30.328;2022-12-29T15:38:38;10.32;;;4.20;;
51272;SDS011;37345;59.828;30.328;2022-12-29T15:41:05;10.90;;;4.10;;
51272;SDS011;37345;59.828;30.328;2022-12-29T15:46:04;11.67;;;4.53;;
51272;SDS011;37345;59.828;30.328;2022-12-29T15:48:31;9.30;;;4.47;;
51272;SDS011;37345;59.828;30.328;2022-12-29T15:50:57;11.65;;;4.85;;
51272;SDS011;37345;59.828;30.328;2022-12-29T15:53:25;13.55;;;4.85;;
51272;SDS011;37345;59.828;30.328;2022-12-29T15:55:54;12.25;;;4.32;;
51272;SDS011;37345;59.828;30.328;2022-12-29T15:58:25;11.45;;;4.95;;
51272;SDS011;37345;59.828;30.328;2022-12-29T16:00:53;11.25;;;5.57;;
51272;SDS011;37345;59.828;30.328;2022-12-29T16:03:20;16.38;;;5.95;;
51272;SDS011;37345;59.828;30.328;2022-12-29T16:05:54;17.80;;;6.20;;
51272;SDS011;37345;59.828;30.328;2022-12-29T16:08:31;19.60;;;7.80;;
51272;SDS011;37345;59.828;30.328;2022-12-29T16:10:58;15.95;;;6.20;;
51272;SDS011;37345;59.828;30.328;2022-12-29T16:13:26;12.73;;;6.40;;
51272;SDS011;37345;59.828;30.328;2022-12-29T16:16:02;15.25;;;6.57;;
51272;SDS011;37345;59.828;30.328;2022-12-29T16:18:30;15.82;;;7.30;;
51272;SDS011;37345;59.828;30.328;2022-12-29T16:20:59;17.35;;;6.88;;
51272;SDS011;37345;59.828;30.328;2022-12-29T16:23:26;13.40;;;7.03;;
51272;SDS011;37345;59.828;30.328;2022-12-29T16:25:53;18.88;;;6.38;;
51272;SDS011;37345;59.828;30.328;2022-12-29T16:28:28;14.80;;;7.30;;
51272;SDS011;37345;59.828;30.328;2022-12-29T16:31:13;14.70;;;7.45;;
51272;SDS011;37345;59.828;30.328;2022-12-29T16:33:45;12.88;;;6.63;;
51272;SDS011;37345;59.828;30.328;2022-12-29T16:36:21;18.93;;;8.23;;
51272;SDS011;37345;59.828;30.328;2022-12-29T16:38:47;16.70;;;7.82;;
51272;SDS011;37345;59.828;30.328;2022-12-29T16:41:28;20.00;;;8.20;;
51272;SDS011;37345;59.828;30.328;2022-12-29T16:44:16;17.25;;;7.70;;